Hundvaag 1 weather for Mar 1994
Month no. 81
Obs.
Da.
Temp. Dew Point Precip. Wind
Speed
Wind gusts Cloud cover Press. Humidity Wind dir. Sunny OPT
01.03.1994 -1,1   0,0                
02.03.1994 -2,4   0,0                
03.03.1994 -0,3   2,1                
04.03.1994 2,3   0,0                
05.03.1994 4,9   3,0                
06.03.1994 4,5   10,6                
07.03.1994 4,6   13,7                
08.03.1994 5,9   9,0                
09.03.1994 1,5   10,9             1  
10.03.1994 2,4   1,4                
11.03.1994 4,7   8,4                
12.03.1994 3,7   5,0                
13.03.1994 2,4   2,0                
14.03.1994 1,2   10,8                
15.03.1994 1,6   12,1                
16.03.1994 1,5   7,3                
17.03.1994 -0,7   5,6                
18.03.1994 -0,4   1,0                
19.03.1994 0,2   0,0             1  
20.03.1994 0,1   0,0             1  
21.03.1994 -4,3   0,0             1  
22.03.1994 1,2   0,0                
23.03.1994 5,7   14,5                
24.03.1994 1,7   0,2                
25.03.1994 3,2   7,0                
26.03.1994 3,0   0,0             1  
27.03.1994 3,3   0,0             1  
28.03.1994 3,6   0,0                
29.03.1994 6,0   4,1                
30.03.1994 4,9   0,0             1  
31.03.1994 8,5   13,1             1  
Avrg/Sum 2,4   141,8             8